Flight Track Log - Related Links

Times and Time Zones

All times are in EST time to prevent confusion due to time zone crossing. See the N210PM flight status page for this flight to view local times or setup timezone preferences in your user account.

Time Position Orientation Groundspeed Altitude Reporting Facility
EST Latitude Longitude Course Direction KTS MPH feet Rate Location/Type
Fri 12:19:00 PM 42.2540 -103.6224 357° North  Level Estimated
Fri 12:19:55 PM 41.8847 -103.6094 357° North 186 214 4,600  Level Denver Center
Fri 12:20:00 PM 42.3300 -103.6270 357° North  Level FlightAware Approximate
Fri 12:20:56 PM 41.9342 -103.6197 351° North 159 183 7,500  Level Denver Center
Fri 12:21:00 PM 42.4060 -103.6316 357° North  Level FlightAware Approximate
Fri 12:21:58 PM 41.9814 -103.6214 358° North 167 192 9,400  Level Denver Center
Fri 12:22:00 PM 42.4820 -103.6362 357° North  Level FlightAware Approximate
Fri 12:23:00 PM 42.5580 -103.6408 357° North  Level FlightAware Approximate
Fri 12:23:00 PM 42.0414 -103.6256 357° North 182 209 11,700  Level Denver Center
Fri 12:24:00 PM 42.6341 -103.6454 357° North  Level FlightAware Approximate
Fri 12:24:01 PM 42.0956 -103.6283 358° North 195 224 13,600  Level Denver Center
Fri 12:25:00 PM 42.7101 -103.6501 357° North  Level FlightAware Approximate
Fri 12:25:03 PM 42.1603 -103.6331 357° North 205 236 15,700  Level Denver Center
Fri 12:26:05 PM 42.2175 -103.6353 358° North 212 244 17,400 1,113 Climbing Denver Center
Fri 12:27:07 PM 42.2789 -103.6403 357° North 228 262 18,000 293 Climbing Denver Center
Fri 12:28:08 PM 42.3706 -103.6447 358° North 286 329 18,000  Level Denver Center
Fri 12:29:10 PM 42.4528 -103.6506 357° North 304 350 18,000  Level Denver Center
Fri 12:30:12 PM 42.5508 -103.6567 357° North 312 359 18,000  Level Denver Center
Fri 12:31:14 PM 42.6333 -103.6622 357° North 313 360 18,000  Level Denver Center
Fri 12:32:15 PM 42.7292 -103.6669 358° North 311 358 18,000  Level Denver Center
Fri 12:33:17 PM 42.8122 -103.6725 357° North 311 358 18,000  Level Denver Center
Fri 12:34:19 PM 42.9083 -103.6800 357° North 311 358 18,000  Level Denver Center
Fri 12:35:21 PM 42.9908 -103.6844 358° North 310 357 18,000  Level Denver Center
Fri 12:36:23 PM 43.0881 -103.6908 357° North 312 359 18,000  Level Denver Center
Fri 12:37:36 PM 43.1722 -103.6964 357° North 314 361 18,000  Level Denver Center
Fri 12:38:39 PM 43.2836 -103.7036 357° North 315 362 18,000  Level Denver Center
Fri 12:39:40 PM 43.3683 -103.7092 357° North 316 364 18,000  Level Denver Center
Fri 12:40:42 PM 43.4678 -103.7153 357° North 319 367 18,000  Level Denver Center
Fri 12:41:16 PM 43.5147 -103.7189 357° North 322 371 18,000  Level Denver Center
Fri 12:41:44 PM 43.5536 -103.7203 359° North 321 369 18,000  Level Denver Center
Fri 12:41:59 PM 43.5789 -103.7222 357° North 322 371 18,000 -87 Level Denver Center
Fri 12:42:53 PM 43.6564 -103.7306 356° North 318 366 17,900 -522 Descending Denver Center
Fri 12:43:54 PM 43.7483 -103.7350 358° North 314 361 17,000 -1,128 Descending Denver Center
Fri 12:44:50 PM 43.8300 -103.7383 358° North 309 356 15,700 -1,400 Descending Denver Center
Fri 12:44:54 PM 43.8361 -103.7406 345° North 303 349 15,600 -1,355 Descending Denver Center
Fri 12:45:52 PM 43.9067 -103.7419 359° North 299 344 14,300 -1,293 Descending Denver Center
Fri 12:46:50 PM 43.9758 -103.7528 354° North 259 298 13,100 -1,180 Descending Denver Center
Fri 12:46:53 PM 43.9775 -103.7500 50° Northeast 282 325 13,100  Level Denver Center
Fri 12:48:00 PM 44.0625 -103.7535 357° North  Level FlightAware Approximate
Fri 12:55:00 PM 44.4667 -103.7833 347° North  Level FlightAware Approximate
Fri 12:56:00 PM 44.4811 -103.7859 347° North  Level Estimated
Fri 12:57:00 PM 44.4811 -103.7859 347° North  Level Estimated
Fri 12:58:00 PM 44.4811 -103.7859 347° North  Level Estimated
Fri 12:59:00 PM 44.4811 -103.7859 347° North  Level Estimated
Fri 01:00:00 PM 44.4811 -103.7859 347° North  Level Estimated
Fri 01:01:00 PM 44.4811 -103.7859 347° North  Level Estimated
Fri 01:02:00 PM 44.4811 -103.7859 347° North  Level Estimated

Login

Don't have an account? Register now (free) for customized features, flight alerts, and more!